sensor_id;sensor_type;location;lat;lon;timestamp;P1;durP1;ratioP1;P2;durP2;ratioP2
74233;SDS011;62591;55.764;37.718;2022-12-10T00:01:47;25.30;;;10.80;;
74233;SDS011;62591;55.764;37.718;2022-12-10T00:04:17;27.55;;;10.45;;
74233;SDS011;62591;55.764;37.718;2022-12-10T00:06:46;21.50;;;9.98;;
74233;SDS011;62591;55.764;37.718;2022-12-10T00:09:16;26.95;;;10.20;;
74233;SDS011;62591;55.764;37.718;2022-12-10T00:11:47;27.50;;;10.60;;
74233;SDS011;62591;55.764;37.718;2022-12-10T00:14:16;26.75;;;10.02;;
74233;SDS011;62591;55.764;37.718;2022-12-10T00:16:45;27.13;;;9.93;;
74233;SDS011;62591;55.764;37.718;2022-12-10T00:19:13;27.17;;;8.65;;
74233;SDS011;62591;55.764;37.718;2022-12-10T00:21:41;23.80;;;9.55;;
74233;SDS011;62591;55.764;37.718;2022-12-10T00:24:12;26.38;;;10.30;;
74233;SDS011;62591;55.764;37.718;2022-12-10T00:26:40;29.38;;;10.13;;
74233;SDS011;62591;55.764;37.718;2022-12-10T00:29:11;22.73;;;10.23;;
74233;SDS011;62591;55.764;37.718;2022-12-10T00:31:40;27.85;;;11.63;;
74233;SDS011;62591;55.764;37.718;2022-12-10T00:34:09;30.33;;;12.60;;
74233;SDS011;62591;55.764;37.718;2022-12-10T00:36:39;26.35;;;11.07;;
74233;SDS011;62591;55.764;37.718;2022-12-10T00:39:11;28.67;;;10.15;;
74233;SDS011;62591;55.764;37.718;2022-12-10T00:41:41;29.60;;;11.60;;
74233;SDS011;62591;55.764;37.718;2022-12-10T00:44:11;34.72;;;10.57;;
74233;SDS011;62591;55.764;37.718;2022-12-10T00:46:41;29.85;;;11.95;;
74233;SDS011;62591;55.764;37.718;2022-12-10T00:49:09;31.48;;;12.07;;
74233;SDS011;62591;55.764;37.718;2022-12-10T00:51:38;41.03;;;14.75;;
74233;SDS011;62591;55.764;37.718;2022-12-10T00:54:07;38.63;;;14.60;;
74233;SDS011;62591;55.764;37.718;2022-12-10T00:56:36;36.40;;;15.38;;
74233;SDS011;62591;55.764;37.718;2022-12-10T00:59:04;39.38;;;14.40;;
74233;SDS011;62591;55.764;37.718;2022-12-10T01:01:35;37.20;;;14.38;;
74233;SDS011;62591;55.764;37.718;2022-12-10T01:04:06;40.10;;;15.38;;
74233;SDS011;62591;55.764;37.718;2022-12-10T01:06:40;39.15;;;14.35;;
74233;SDS011;62591;55.764;37.718;2022-12-10T01:09:11;39.33;;;15.07;;
74233;SDS011;62591;55.764;37.718;2022-12-10T01:11:42;44.70;;;16.40;;
74233;SDS011;62591;55.764;37.718;2022-12-10T01:14:13;41.78;;;16.80;;
74233;SDS011;62591;55.764;37.718;2022-12-10T01:16:48;40.53;;;17.00;;
74233;SDS011;62591;55.764;37.718;2022-12-10T01:19:17;48.08;;;17.95;;
74233;SDS011;62591;55.764;37.718;2022-12-10T01:21:45;40.03;;;17.00;;
74233;SDS011;62591;55.764;37.718;2022-12-10T01:24:18;44.88;;;16.85;;
74233;SDS011;62591;55.764;37.718;2022-12-10T01:26:47;46.08;;;16.35;;
74233;SDS011;62591;55.764;37.718;2022-12-10T01:29:15;50.88;;;16.98;;
74233;SDS011;62591;55.764;37.718;2022-12-10T01:31:44;46.58;;;16.20;;
74233;SDS011;62591;55.764;37.718;2022-12-10T01:34:16;51.25;;;19.48;;
74233;SDS011;62591;55.764;37.718;2022-12-10T01:36:47;53.20;;;18.95;;
74233;SDS011;62591;55.764;37.718;2022-12-10T01:39:18;54.03;;;18.27;;
74233;SDS011;62591;55.764;37.718;2022-12-10T01:41:48;50.92;;;18.35;;
74233;SDS011;62591;55.764;37.718;2022-12-10T01:47:30;47.03;;;19.23;;
74233;SDS011;62591;55.764;37.718;2022-12-10T01:50:00;50.05;;;18.35;;
74233;SDS011;62591;55.764;37.718;2022-12-10T01:52:31;52.88;;;19.70;;
74233;SDS011;62591;55.764;37.718;2022-12-10T01:54:59;55.00;;;18.65;;
74233;SDS011;62591;55.764;37.718;2022-12-10T01:57:29;56.58;;;18.48;;
74233;SDS011;62591;55.764;37.718;2022-12-10T02:00:00;47.15;;;18.17;;
74233;SDS011;62591;55.764;37.718;2022-12-10T02:02:42;55.80;;;20.08;;
74233;SDS011;62591;55.764;37.718;2022-12-10T02:05:19;46.45;;;17.67;;
74233;SDS011;62591;55.764;37.718;2022-12-10T02:07:55;53.83;;;19.13;;
74233;SDS011;62591;55.764;37.718;2022-12-10T02:10:39;54.33;;;20.23;;
74233;SDS011;62591;55.764;37.718;2022-12-10T02:13:16;56.72;;;18.90;;
74233;SDS011;62591;55.764;37.718;2022-12-10T02:15:51;54.58;;;18.23;;
74233;SDS011;62591;55.764;37.718;2022-12-10T02:18:21;48.55;;;17.58;;
74233;SDS011;62591;55.764;37.718;2022-12-10T02:20:57;53.58;;;18.60;;
74233;SDS011;62591;55.764;37.718;2022-12-10T02:23:31;52.28;;;17.15;;
74233;SDS011;62591;55.764;37.718;2022-12-10T02:26:05;49.95;;;18.10;;
74233;SDS011;62591;55.764;37.718;2022-12-10T02:28:40;56.60;;;18.92;;
74233;SDS011;62591;55.764;37.718;2022-12-10T02:31:19;53.40;;;18.45;;
74233;SDS011;62591;55.764;37.718;2022-12-10T02:33:54;54.10;;;18.13;;
74233;SDS011;62591;55.764;37.718;2022-12-10T02:36:25;55.55;;;18.70;;
74233;SDS011;62591;55.764;37.718;2022-12-10T02:38:57;52.03;;;18.52;;
74233;SDS011;62591;55.764;37.718;2022-12-10T02:41:30;50.58;;;19.05;;
74233;SDS011;62591;55.764;37.718;2022-12-10T02:44:04;51.88;;;18.98;;
74233;SDS011;62591;55.764;37.718;2022-12-10T02:46:40;50.00;;;18.55;;
74233;SDS011;62591;55.764;37.718;2022-12-10T02:49:14;55.53;;;17.70;;
74233;SDS011;62591;55.764;37.718;2022-12-10T02:51:44;54.42;;;18.45;;
74233;SDS011;62591;55.764;37.718;2022-12-10T02:54:33;56.05;;;19.35;;
74233;SDS011;62591;55.764;37.718;2022-12-10T02:57:10;59.45;;;20.52;;
74233;SDS011;62591;55.764;37.718;2022-12-10T02:59:53;59.58;;;19.83;;
74233;SDS011;62591;55.764;37.718;2022-12-10T03:02:43;53.90;;;20.60;;
74233;SDS011;62591;55.764;37.718;2022-12-10T03:05:31;55.85;;;19.05;;
74233;SDS011;62591;55.764;37.718;2022-12-10T03:08:05;46.03;;;18.75;;
74233;SDS011;62591;55.764;37.718;2022-12-10T03:10:42;50.30;;;19.13;;
74233;SDS011;62591;55.764;37.718;2022-12-10T03:13:16;53.22;;;19.38;;
74233;SDS011;62591;55.764;37.718;2022-12-10T03:15:49;53.58;;;19.92;;
74233;SDS011;62591;55.764;37.718;2022-12-10T03:18:22;57.88;;;20.80;;
74233;SDS011;62591;55.764;37.718;2022-12-10T03:20:53;55.90;;;19.20;;
74233;SDS011;62591;55.764;37.718;2022-12-10T03:23:26;56.10;;;20.05;;
74233;SDS011;62591;55.764;37.718;2022-12-10T03:25:57;54.53;;;21.98;;
74233;SDS011;62591;55.764;37.718;2022-12-10T03:28:26;53.92;;;21.70;;
74233;SDS011;62591;55.764;37.718;2022-12-10T03:30:59;55.25;;;21.50;;
74233;SDS011;62591;55.764;37.718;2022-12-10T03:33:32;55.58;;;21.88;;
74233;SDS011;62591;55.764;37.718;2022-12-10T03:36:01;58.33;;;23.83;;
74233;SDS011;62591;55.764;37.718;2022-12-10T03:38:30;57.10;;;23.30;;
74233;SDS011;62591;55.764;37.718;2022-12-10T03:40:58;54.40;;;22.58;;
74233;SDS011;62591;55.764;37.718;2022-12-10T03:43:27;54.03;;;21.85;;
74233;SDS011;62591;55.764;37.718;2022-12-10T03:45:56;51.92;;;21.83;;
74233;SDS011;62591;55.764;37.718;2022-12-10T03:48:24;54.45;;;22.13;;
74233;SDS011;62591;55.764;37.718;2022-12-10T03:50:54;51.05;;;20.55;;
74233;SDS011;62591;55.764;37.718;2022-12-10T03:53:23;44.58;;;19.75;;
74233;SDS011;62591;55.764;37.718;2022-12-10T03:55:52;47.92;;;20.30;;
74233;SDS011;62591;55.764;37.718;2022-12-10T03:58:20;41.80;;;19.27;;
74233;SDS011;62591;55.764;37.718;2022-12-10T04:00:49;46.50;;;18.58;;
74233;SDS011;62591;55.764;37.718;2022-12-10T04:03:18;40.13;;;19.20;;
74233;SDS011;62591;55.764;37.718;2022-12-10T04:05:46;41.45;;;17.30;;
74233;SDS011;62591;55.764;37.718;2022-12-10T04:08:16;37.47;;;17.70;;
74233;SDS011;62591;55.764;37.718;2022-12-10T04:10:47;43.05;;;19.88;;
74233;SDS011;62591;55.764;37.718;2022-12-10T04:13:17;45.78;;;20.63;;
74233;SDS011;62591;55.764;37.718;2022-12-10T04:16:03;51.70;;;21.50;;
74233;SDS011;62591;55.764;37.718;2022-12-10T04:18:50;50.25;;;21.60;;
74233;SDS011;62591;55.764;37.718;2022-12-10T04:21:27;54.95;;;22.70;;
74233;SDS011;62591;55.764;37.718;2022-12-10T04:24:16;49.90;;;21.77;;
74233;SDS011;62591;55.764;37.718;2022-12-10T04:27:04;50.28;;;23.23;;
74233;SDS011;62591;55.764;37.718;2022-12-10T04:29:36;57.03;;;23.52;;
74233;SDS011;62591;55.764;37.718;2022-12-10T04:32:05;53.20;;;23.17;;
74233;SDS011;62591;55.764;37.718;2022-12-10T04:34:34;61.55;;;24.88;;
74233;SDS011;62591;55.764;37.718;2022-12-10T04:37:03;65.35;;;26.52;;
74233;SDS011;62591;55.764;37.718;2022-12-10T04:39:34;61.10;;;26.88;;
74233;SDS011;62591;55.764;37.718;2022-12-10T04:42:02;68.32;;;29.42;;
74233;SDS011;62591;55.764;37.718;2022-12-10T04:44:31;65.00;;;26.33;;
74233;SDS011;62591;55.764;37.718;2022-12-10T04:47:00;62.78;;;25.92;;
74233;SDS011;62591;55.764;37.718;2022-12-10T04:49:29;52.95;;;23.02;;
74233;SDS011;62591;55.764;37.718;2022-12-10T04:51:57;55.78;;;23.15;;
74233;SDS011;62591;55.764;37.718;2022-12-10T04:54:26;61.45;;;25.80;;
74233;SDS011;62591;55.764;37.718;2022-12-10T04:57:04;63.65;;;25.75;;
74233;SDS011;62591;55.764;37.718;2022-12-10T04:59:33;66.03;;;26.17;;
74233;SDS011;62591;55.764;37.718;2022-12-10T05:02:02;64.05;;;25.23;;
74233;SDS011;62591;55.764;37.718;2022-12-10T05:04:31;73.75;;;27.58;;
74233;SDS011;62591;55.764;37.718;2022-12-10T05:07:00;82.90;;;30.10;;
74233;SDS011;62591;55.764;37.718;2022-12-10T05:09:28;71.53;;;29.15;;
74233;SDS011;62591;55.764;37.718;2022-12-10T05:11:57;73.35;;;29.45;;
74233;SDS011;62591;55.764;37.718;2022-12-10T05:14:27;76.47;;;27.50;;
74233;SDS011;62591;55.764;37.718;2022-12-10T05:16:56;56.83;;;24.17;;
74233;SDS011;62591;55.764;37.718;2022-12-10T05:19:24;59.90;;;23.02;;
74233;SDS011;62591;55.764;37.718;2022-12-10T05:21:53;51.47;;;22.13;;
74233;SDS011;62591;55.764;37.718;2022-12-10T05:24:39;65.72;;;23.40;;
74233;SDS011;62591;55.764;37.718;2022-12-10T05:27:07;68.90;;;28.27;;
74233;SDS011;62591;55.764;37.718;2022-12-10T05:29:37;62.33;;;25.42;;
74233;SDS011;62591;55.764;37.718;2022-12-10T05:32:06;68.72;;;26.05;;
74233;SDS011;62591;55.764;37.718;2022-12-10T05:34:34;61.30;;;24.17;;
74233;SDS011;62591;55.764;37.718;2022-12-10T05:37:03;61.03;;;24.05;;
74233;SDS011;62591;55.764;37.718;2022-12-10T05:39:31;52.70;;;21.95;;
74233;SDS011;62591;55.764;37.718;2022-12-10T05:42:00;53.92;;;23.23;;
74233;SDS011;62591;55.764;37.718;2022-12-10T05:44:29;72.20;;;28.10;;
74233;SDS011;62591;55.764;37.718;2022-12-10T05:46:59;84.90;;;33.42;;
74233;SDS011;62591;55.764;37.718;2022-12-10T05:49:27;91.07;;;35.85;;
74233;SDS011;62591;55.764;37.718;2022-12-10T05:51:56;79.47;;;29.60;;
74233;SDS011;62591;55.764;37.718;2022-12-10T05:54:25;71.75;;;28.55;;
74233;SDS011;62591;55.764;37.718;2022-12-10T05:56:53;87.47;;;33.67;;
74233;SDS011;62591;55.764;37.718;2022-12-10T05:59:22;87.78;;;37.60;;
74233;SDS011;62591;55.764;37.718;2022-12-10T06:01:50;87.65;;;38.10;;
74233;SDS011;62591;55.764;37.718;2022-12-10T06:04:20;90.10;;;36.72;;
74233;SDS011;62591;55.764;37.718;2022-12-10T06:06:49;77.47;;;30.27;;
74233;SDS011;62591;55.764;37.718;2022-12-10T06:09:18;73.88;;;27.70;;
74233;SDS011;62591;55.764;37.718;2022-12-10T06:11:46;86.50;;;32.25;;
74233;SDS011;62591;55.764;37.718;2022-12-10T06:14:15;89.80;;;36.80;;
74233;SDS011;62591;55.764;37.718;2022-12-10T06:16:44;69.05;;;28.48;;
74233;SDS011;62591;55.764;37.718;2022-12-10T06:19:13;59.47;;;23.48;;
74233;SDS011;62591;55.764;37.718;2022-12-10T06:21:43;54.95;;;21.15;;
74233;SDS011;62591;55.764;37.718;2022-12-10T06:24:11;50.88;;;21.27;;
74233;SDS011;62591;55.764;37.718;2022-12-10T06:26:40;45.55;;;19.70;;
74233;SDS011;62591;55.764;37.718;2022-12-10T06:29:08;46.80;;;19.75;;
74233;SDS011;62591;55.764;37.718;2022-12-10T06:31:37;54.72;;;21.17;;
74233;SDS011;62591;55.764;37.718;2022-12-10T06:34:06;53.25;;;20.67;;
74233;SDS011;62591;55.764;37.718;2022-12-10T06:36:35;49.92;;;19.13;;
74233;SDS011;62591;55.764;37.718;2022-12-10T06:39:05;49.67;;;20.20;;
74233;SDS011;62591;55.764;37.718;2022-12-10T06:41:33;52.83;;;22.40;;
74233;SDS011;62591;55.764;37.718;2022-12-10T06:44:02;57.83;;;22.35;;
74233;SDS011;62591;55.764;37.718;2022-12-10T06:46:34;56.60;;;24.15;;
74233;SDS011;62591;55.764;37.718;2022-12-10T06:49:03;59.33;;;24.15;;
74233;SDS011;62591;55.764;37.718;2022-12-10T06:51:32;63.33;;;24.42;;
74233;SDS011;62591;55.764;37.718;2022-12-10T06:54:01;61.00;;;24.45;;
74233;SDS011;62591;55.764;37.718;2022-12-10T06:56:32;57.38;;;23.13;;
74233;SDS011;62591;55.764;37.718;2022-12-10T06:59:03;58.03;;;24.13;;
74233;SDS011;62591;55.764;37.718;2022-12-10T07:01:33;63.83;;;25.42;;
74233;SDS011;62591;55.764;37.718;2022-12-10T07:04:02;67.38;;;27.45;;
74233;SDS011;62591;55.764;37.718;2022-12-10T07:06:31;68.72;;;26.35;;
74233;SDS011;62591;55.764;37.718;2022-12-10T07:09:04;71.25;;;25.88;;
74233;SDS011;62591;55.764;37.718;2022-12-10T07:11:34;68.40;;;27.00;;
74233;SDS011;62591;55.764;37.718;2022-12-10T07:14:03;70.05;;;26.25;;
74233;SDS011;62591;55.764;37.718;2022-12-10T07:16:32;71.32;;;27.02;;
74233;SDS011;62591;55.764;37.718;2022-12-10T07:19:01;72.68;;;29.02;;
74233;SDS011;62591;55.764;37.718;2022-12-10T07:21:31;73.20;;;30.67;;
74233;SDS011;62591;55.764;37.718;2022-12-10T07:24:01;62.78;;;26.58;;
74233;SDS011;62591;55.764;37.718;2022-12-10T07:26:32;71.65;;;31.13;;
74233;SDS011;62591;55.764;37.718;2022-12-10T07:29:05;74.72;;;27.90;;
74233;SDS011;62591;55.764;37.718;2022-12-10T07:31:35;70.10;;;28.30;;
74233;SDS011;62591;55.764;37.718;2022-12-10T07:34:04;57.17;;;24.35;;
74233;SDS011;62591;55.764;37.718;2022-12-10T07:36:33;61.25;;;25.27;;
74233;SDS011;62591;55.764;37.718;2022-12-10T07:39:01;70.00;;;25.35;;
74233;SDS011;62591;55.764;37.718;2022-12-10T07:41:33;63.78;;;23.60;;
74233;SDS011;62591;55.764;37.718;2022-12-10T07:44:04;59.20;;;24.40;;
74233;SDS011;62591;55.764;37.718;2022-12-10T07:46:34;56.10;;;24.05;;
74233;SDS011;62591;55.764;37.718;2022-12-10T07:49:03;57.45;;;23.33;;
74233;SDS011;62591;55.764;37.718;2022-12-10T07:51:31;65.43;;;25.75;;
74233;SDS011;62591;55.764;37.718;2022-12-10T07:54:00;61.67;;;23.30;;
74233;SDS011;62591;55.764;37.718;2022-12-10T07:56:30;75.78;;;31.40;;
74233;SDS011;62591;55.764;37.718;2022-12-10T07:59:00;78.35;;;32.50;;
74233;SDS011;62591;55.764;37.718;2022-12-10T08:01:29;72.15;;;26.95;;
74233;SDS011;62591;55.764;37.718;2022-12-10T08:03:58;67.72;;;25.15;;
74233;SDS011;62591;55.764;37.718;2022-12-10T08:06:27;61.72;;;24.45;;
74233;SDS011;62591;55.764;37.718;2022-12-10T08:08:57;58.65;;;23.52;;
74233;SDS011;62591;55.764;37.718;2022-12-10T08:11:27;66.90;;;26.58;;
74233;SDS011;62591;55.764;37.718;2022-12-10T08:13:56;66.30;;;22.50;;
74233;SDS011;62591;55.764;37.718;2022-12-10T08:16:27;61.83;;;24.42;;
74233;SDS011;62591;55.764;37.718;2022-12-10T08:18:59;64.57;;;24.08;;
74233;SDS011;62591;55.764;37.718;2022-12-10T08:21:29;71.22;;;24.02;;
74233;SDS011;62591;55.764;37.718;2022-12-10T08:23:59;69.07;;;23.98;;
74233;SDS011;62591;55.764;37.718;2022-12-10T08:26:29;57.95;;;24.70;;
74233;SDS011;62591;55.764;37.718;2022-12-10T08:29:00;66.88;;;24.23;;
74233;SDS011;62591;55.764;37.718;2022-12-10T08:31:30;65.57;;;24.45;;
74233;SDS011;62591;55.764;37.718;2022-12-10T08:34:03;60.72;;;23.02;;
74233;SDS011;62591;55.764;37.718;2022-12-10T08:36:33;70.05;;;23.30;;
74233;SDS011;62591;55.764;37.718;2022-12-10T08:39:01;66.97;;;23.52;;
74233;SDS011;62591;55.764;37.718;2022-12-10T08:41:30;63.95;;;23.05;;
74233;SDS011;62591;55.764;37.718;2022-12-10T08:43:58;71.93;;;24.08;;
74233;SDS011;62591;55.764;37.718;2022-12-10T08:46:28;71.50;;;25.40;;
74233;SDS011;62591;55.764;37.718;2022-12-10T08:48:58;74.15;;;24.75;;
74233;SDS011;62591;55.764;37.718;2022-12-10T08:51:27;71.32;;;25.33;;
74233;SDS011;62591;55.764;37.718;2022-12-10T08:53:55;72.00;;;24.55;;
74233;SDS011;62591;55.764;37.718;2022-12-10T08:56:24;70.53;;;24.33;;
74233;SDS011;62591;55.764;37.718;2022-12-10T08:58:53;76.15;;;24.08;;
74233;SDS011;62591;55.764;37.718;2022-12-10T09:01:22;75.97;;;25.95;;
74233;SDS011;62591;55.764;37.718;2022-12-10T09:03:52;77.03;;;25.70;;
74233;SDS011;62591;55.764;37.718;2022-12-10T09:06:21;81.57;;;26.33;;
74233;SDS011;62591;55.764;37.718;2022-12-10T09:08:52;90.60;;;26.45;;
74233;SDS011;62591;55.764;37.718;2022-12-10T09:11:22;77.90;;;25.15;;
74233;SDS011;62591;55.764;37.718;2022-12-10T09:13:52;80.28;;;25.80;;
74233;SDS011;62591;55.764;37.718;2022-12-10T09:16:21;76.88;;;25.60;;
74233;SDS011;62591;55.764;37.718;2022-12-10T09:18:57;78.18;;;25.63;;
74233;SDS011;62591;55.764;37.718;2022-12-10T09:21:26;72.00;;;23.95;;
74233;SDS011;62591;55.764;37.718;2022-12-10T09:23:56;82.05;;;25.95;;
74233;SDS011;62591;55.764;37.718;2022-12-10T09:26:25;73.45;;;24.13;;
74233;SDS011;62591;55.764;37.718;2022-12-10T09:28:54;86.32;;;28.17;;
74233;SDS011;62591;55.764;37.718;2022-12-10T09:31:24;74.57;;;24.02;;
74233;SDS011;62591;55.764;37.718;2022-12-10T09:33:57;87.43;;;24.58;;
74233;SDS011;62591;55.764;37.718;2022-12-10T09:36:26;77.43;;;25.33;;
74233;SDS011;62591;55.764;37.718;2022-12-10T09:38:59;75.57;;;24.73;;
74233;SDS011;62591;55.764;37.718;2022-12-10T09:41:41;98.82;;;30.38;;
74233;SDS011;62591;55.764;37.718;2022-12-10T09:44:21;87.60;;;27.17;;
74233;SDS011;62591;55.764;37.718;2022-12-10T09:47:00;87.25;;;25.83;;
74233;SDS011;62591;55.764;37.718;2022-12-10T09:49:36;80.25;;;25.80;;
74233;SDS011;62591;55.764;37.718;2022-12-10T09:52:14;85.93;;;26.30;;
74233;SDS011;62591;55.764;37.718;2022-12-10T09:54:45;85.85;;;27.27;;
74233;SDS011;62591;55.764;37.718;2022-12-10T09:57:19;86.82;;;26.25;;
74233;SDS011;62591;55.764;37.718;2022-12-10T09:59:52;92.80;;;29.73;;
74233;SDS011;62591;55.764;37.718;2022-12-10T10:02:23;91.82;;;27.65;;
74233;SDS011;62591;55.764;37.718;2022-12-10T10:04:57;107.70;;;35.45;;
74233;SDS011;62591;55.764;37.718;2022-12-10T10:07:30;92.15;;;30.52;;
74233;SDS011;62591;55.764;37.718;2022-12-10T10:10:02;89.38;;;28.45;;
74233;SDS011;62591;55.764;37.718;2022-12-10T10:12:34;96.57;;;29.88;;
74233;SDS011;62591;55.764;37.718;2022-12-10T10:15:09;94.70;;;29.75;;
74233;SDS011;62591;55.764;37.718;2022-12-10T10:17:41;87.40;;;28.33;;
74233;SDS011;62591;55.764;37.718;2022-12-10T10:20:15;90.22;;;27.42;;
74233;SDS011;62591;55.764;37.718;2022-12-10T10:22:44;90.72;;;28.42;;
74233;SDS011;62591;55.764;37.718;2022-12-10T10:25:13;100.50;;;31.83;;
74233;SDS011;62591;55.764;37.718;2022-12-10T10:27:43;90.55;;;30.20;;
74233;SDS011;62591;55.764;37.718;2022-12-10T10:30:13;89.80;;;28.50;;
74233;SDS011;62591;55.764;37.718;2022-12-10T10:32:45;96.15;;;29.10;;
74233;SDS011;62591;55.764;37.718;2022-12-10T10:35:26;94.95;;;30.65;;
74233;SDS011;62591;55.764;37.718;2022-12-10T10:37:56;99.65;;;29.95;;
74233;SDS011;62591;55.764;37.718;2022-12-10T10:40:28;102.63;;;32.83;;
74233;SDS011;62591;55.764;37.718;2022-12-10T10:42:59;88.15;;;31.08;;
74233;SDS011;62591;55.764;37.718;2022-12-10T10:45:36;91.95;;;30.83;;
74233;SDS011;62591;55.764;37.718;2022-12-10T10:48:11;89.43;;;28.75;;
74233;SDS011;62591;55.764;37.718;2022-12-10T10:50:45;82.97;;;26.13;;
74233;SDS011;62591;55.764;37.718;2022-12-10T10:53:31;89.68;;;27.27;;
74233;SDS011;62591;55.764;37.718;2022-12-10T10:56:08;99.05;;;35.58;;
74233;SDS011;62591;55.764;37.718;2022-12-10T10:58:53;100.72;;;34.83;;
74233;SDS011;62591;55.764;37.718;2022-12-10T11:01:25;88.35;;;27.17;;
74233;SDS011;62591;55.764;37.718;2022-12-10T11:03:56;86.05;;;27.55;;
74233;SDS011;62591;55.764;37.718;2022-12-10T11:06:28;94.28;;;30.40;;
74233;SDS011;62591;55.764;37.718;2022-12-10T11:08:57;85.28;;;27.73;;
74233;SDS011;62591;55.764;37.718;2022-12-10T11:11:31;80.75;;;23.95;;
74233;SDS011;62591;55.764;37.718;2022-12-10T11:16:56;76.07;;;23.27;;
74233;SDS011;62591;55.764;37.718;2022-12-10T11:19:29;83.38;;;22.52;;
74233;SDS011;62591;55.764;37.718;2022-12-10T11:22:15;71.72;;;23.65;;
74233;SDS011;62591;55.764;37.718;2022-12-10T11:24:47;75.88;;;25.10;;
74233;SDS011;62591;55.764;37.718;2022-12-10T11:27:18;79.65;;;26.20;;
74233;SDS011;62591;55.764;37.718;2022-12-10T11:29:59;82.93;;;26.48;;
74233;SDS011;62591;55.764;37.718;2022-12-10T11:32:34;80.82;;;25.65;;
74233;SDS011;62591;55.764;37.718;2022-12-10T11:35:15;80.50;;;25.17;;
74233;SDS011;62591;55.764;37.718;2022-12-10T11:37:53;79.88;;;26.25;;
74233;SDS011;62591;55.764;37.718;2022-12-10T11:40:33;86.43;;;25.75;;
74233;SDS011;62591;55.764;37.718;2022-12-10T11:43:11;79.95;;;25.20;;
74233;SDS011;62591;55.764;37.718;2022-12-10T11:45:57;76.90;;;23.77;;
74233;SDS011;62591;55.764;37.718;2022-12-10T11:48:41;74.03;;;24.52;;
74233;SDS011;62591;55.764;37.718;2022-12-10T11:51:19;76.20;;;22.80;;
74233;SDS011;62591;55.764;37.718;2022-12-10T11:54:03;79.10;;;23.25;;
74233;SDS011;62591;55.764;37.718;2022-12-10T11:56:42;72.18;;;24.45;;
74233;SDS011;62591;55.764;37.718;2022-12-10T11:59:15;74.25;;;22.10;;
74233;SDS011;62591;55.764;37.718;2022-12-10T12:05:10;86.43;;;29.10;;
74233;SDS011;62591;55.764;37.718;2022-12-10T12:07:53;68.20;;;26.42;;
74233;SDS011;62591;55.764;37.718;2022-12-10T12:10:53;73.07;;;26.13;;
74233;SDS011;62591;55.764;37.718;2022-12-10T12:13:32;68.93;;;23.45;;
74233;SDS011;62591;55.764;37.718;2022-12-10T12:16:04;58.75;;;21.45;;
74233;SDS011;62591;55.764;37.718;2022-12-10T12:18:40;72.00;;;24.25;;
74233;SDS011;62591;55.764;37.718;2022-12-10T12:21:14;59.45;;;22.10;;
74233;SDS011;62591;55.764;37.718;2022-12-10T12:23:46;65.45;;;21.00;;
74233;SDS011;62591;55.764;37.718;2022-12-10T12:26:21;53.08;;;20.52;;
74233;SDS011;62591;55.764;37.718;2022-12-10T12:28:56;50.33;;;17.92;;
74233;SDS011;62591;55.764;37.718;2022-12-10T12:31:34;54.47;;;19.50;;
74233;SDS011;62591;55.764;37.718;2022-12-10T12:34:10;53.72;;;19.13;;
74233;SDS011;62591;55.764;37.718;2022-12-10T12:36:45;60.65;;;20.63;;
74233;SDS011;62591;55.764;37.718;2022-12-10T12:39:17;62.28;;;20.80;;
74233;SDS011;62591;55.764;37.718;2022-12-10T12:41:55;59.28;;;22.70;;
74233;SDS011;62591;55.764;37.718;2022-12-10T12:44:32;64.55;;;22.75;;
74233;SDS011;62591;55.764;37.718;2022-12-10T12:47:11;56.15;;;20.02;;
74233;SDS011;62591;55.764;37.718;2022-12-10T12:49:50;52.75;;;19.55;;
74233;SDS011;62591;55.764;37.718;2022-12-10T12:52:26;57.45;;;21.13;;
74233;SDS011;62591;55.764;37.718;2022-12-10T12:55:04;49.47;;;19.02;;
74233;SDS011;62591;55.764;37.718;2022-12-10T12:57:46;55.58;;;18.98;;
74233;SDS011;62591;55.764;37.718;2022-12-10T13:00:22;55.15;;;18.73;;
74233;SDS011;62591;55.764;37.718;2022-12-10T13:02:53;50.15;;;18.65;;
74233;SDS011;62591;55.764;37.718;2022-12-10T13:10:56;50.72;;;18.20;;
74233;SDS011;62591;55.764;37.718;2022-12-10T13:13:32;48.50;;;17.70;;
74233;SDS011;62591;55.764;37.718;2022-12-10T13:19:24;53.15;;;17.75;;
74233;SDS011;62591;55.764;37.718;2022-12-10T13:21:58;46.55;;;18.48;;
74233;SDS011;62591;55.764;37.718;2022-12-10T13:27:34;53.60;;;19.55;;
74233;SDS011;62591;55.764;37.718;2022-12-10T13:30:26;48.10;;;19.55;;
74233;SDS011;62591;55.764;37.718;2022-12-10T13:33:13;47.88;;;19.15;;
74233;SDS011;62591;55.764;37.718;2022-12-10T13:35:51;47.30;;;18.67;;
74233;SDS011;62591;55.764;37.718;2022-12-10T13:38:38;45.75;;;18.05;;
74233;SDS011;62591;55.764;37.718;2022-12-10T13:46:52;44.05;;;16.88;;
74233;SDS011;62591;55.764;37.718;2022-12-10T13:49:25;37.50;;;17.60;;
74233;SDS011;62591;55.764;37.718;2022-12-10T13:51:59;48.55;;;18.15;;
74233;SDS011;62591;55.764;37.718;2022-12-10T13:54:35;43.33;;;17.60;;
74233;SDS011;62591;55.764;37.718;2022-12-10T14:00:29;45.65;;;18.95;;
74233;SDS011;62591;55.764;37.718;2022-12-10T14:03:08;41.70;;;17.42;;
74233;SDS011;62591;55.764;37.718;2022-12-10T14:06:09;45.50;;;19.30;;
74233;SDS011;62591;55.764;37.718;2022-12-10T14:08:47;39.53;;;16.73;;
74233;SDS011;62591;55.764;37.718;2022-12-10T14:11:26;42.78;;;17.63;;
74233;SDS011;62591;55.764;37.718;2022-12-10T14:14:04;39.05;;;16.70;;
74233;SDS011;62591;55.764;37.718;2022-12-10T14:16:34;41.72;;;17.17;;
74233;SDS011;62591;55.764;37.718;2022-12-10T14:19:08;43.97;;;17.25;;
74233;SDS011;62591;55.764;37.718;2022-12-10T14:21:41;41.40;;;17.55;;
74233;SDS011;62591;55.764;37.718;2022-12-10T14:24:25;39.97;;;16.20;;
74233;SDS011;62591;55.764;37.718;2022-12-10T14:27:00;43.38;;;17.15;;
74233;SDS011;62591;55.764;37.718;2022-12-10T14:29:30;42.35;;;17.50;;
74233;SDS011;62591;55.764;37.718;2022-12-10T14:31:59;39.78;;;17.15;;
74233;SDS011;62591;55.764;37.718;2022-12-10T14:34:29;38.50;;;16.20;;
74233;SDS011;62591;55.764;37.718;2022-12-10T14:36:58;40.63;;;17.30;;
74233;SDS011;62591;55.764;37.718;2022-12-10T14:39:31;41.75;;;16.65;;
74233;SDS011;62591;55.764;37.718;2022-12-10T14:42:02;49.80;;;17.48;;
74233;SDS011;62591;55.764;37.718;2022-12-10T14:44:34;42.20;;;17.38;;
74233;SDS011;62591;55.764;37.718;2022-12-10T14:47:11;39.97;;;15.57;;
74233;SDS011;62591;55.764;37.718;2022-12-10T14:49:43;37.72;;;15.77;;
74233;SDS011;62591;55.764;37.718;2022-12-10T14:52:15;41.70;;;17.10;;
74233;SDS011;62591;55.764;37.718;2022-12-10T14:54:46;41.00;;;17.20;;
74233;SDS011;62591;55.764;37.718;2022-12-10T14:57:17;40.55;;;16.52;;
74233;SDS011;62591;55.764;37.718;2022-12-10T14:59:50;38.63;;;15.75;;
74233;SDS011;62591;55.764;37.718;2022-12-10T15:02:27;40.30;;;18.75;;
74233;SDS011;62591;55.764;37.718;2022-12-10T15:04:59;45.58;;;19.95;;
74233;SDS011;62591;55.764;37.718;2022-12-10T15:07:30;50.20;;;21.45;;
74233;SDS011;62591;55.764;37.718;2022-12-10T15:10:05;53.40;;;23.30;;